sensor_id;sensor_type;location;lat;lon;timestamp;temperature;humidity
20400;DHT22;10359;53.596;22.520;2023-01-05T00:02:03;7.50;1.00
20400;DHT22;10359;53.596;22.520;2023-01-05T00:04:35;7.50;1.00
20400;DHT22;10359;53.596;22.520;2023-01-05T00:07:05;7.50;1.00
20400;DHT22;10359;53.596;22.520;2023-01-05T00:09:34;7.50;1.00
20400;DHT22;10359;53.596;22.520;2023-01-05T00:12:05;7.60;1.00
20400;DHT22;10359;53.596;22.520;2023-01-05T00:14:55;7.60;1.00
20400;DHT22;10359;53.596;22.520;2023-01-05T00:17:47;7.60;1.00
20400;DHT22;10359;53.596;22.520;2023-01-05T00:20:35;7.70;1.00
20400;DHT22;10359;53.596;22.520;2023-01-05T00:23:34;7.70;1.00
20400;DHT22;10359;53.596;22.520;2023-01-05T00:26:03;7.70;1.00
20400;DHT22;10359;53.596;22.520;2023-01-05T00:28:32;7.70;1.00
20400;DHT22;10359;53.596;22.520;2023-01-05T00:31:03;7.70;1.00
20400;DHT22;10359;53.596;22.520;2023-01-05T00:33:33;7.70;1.00
20400;DHT22;10359;53.596;22.520;2023-01-05T00:36:08;7.70;1.00
20400;DHT22;10359;53.596;22.520;2023-01-05T00:38:38;7.70;1.00
20400;DHT22;10359;53.596;22.520;2023-01-05T00:41:09;7.70;1.00
20400;DHT22;10359;53.596;22.520;2023-01-05T00:43:38;7.70;1.00
20400;DHT22;10359;53.596;22.520;2023-01-05T00:46:07;7.80;1.00
20400;DHT22;10359;53.596;22.520;2023-01-05T00:48:39;7.80;1.00
20400;DHT22;10359;53.596;22.520;2023-01-05T00:51:12;7.80;1.00
20400;DHT22;10359;53.596;22.520;2023-01-05T00:53:41;7.80;1.00
20400;DHT22;10359;53.596;22.520;2023-01-05T00:56:10;7.70;1.00
20400;DHT22;10359;53.596;22.520;2023-01-05T00:58:47;7.80;1.00
20400;DHT22;10359;53.596;22.520;2023-01-05T01:01:16;7.70;1.00
20400;DHT22;10359;53.596;22.520;2023-01-05T01:03:46;7.80;1.00
20400;DHT22;10359;53.596;22.520;2023-01-05T01:06:16;7.70;1.00
20400;DHT22;10359;53.596;22.520;2023-01-05T01:08:46;7.80;1.00
20400;DHT22;10359;53.596;22.520;2023-01-05T01:11:15;7.90;1.00
20400;DHT22;10359;53.596;22.520;2023-01-05T01:13:46;7.90;1.00
20400;DHT22;10359;53.596;22.520;2023-01-05T01:16:16;8.00;1.00
20400;DHT22;10359;53.596;22.520;2023-01-05T01:18:46;7.90;1.00
20400;DHT22;10359;53.596;22.520;2023-01-05T01:21:21;7.90;1.00
20400;DHT22;10359;53.596;22.520;2023-01-05T01:23:53;8.00;1.00
20400;DHT22;10359;53.596;22.520;2023-01-05T01:26:23;8.00;1.00
20400;DHT22;10359;53.596;22.520;2023-01-05T01:28:52;7.90;1.00
20400;DHT22;10359;53.596;22.520;2023-01-05T01:31:23;8.00;1.00
20400;DHT22;10359;53.596;22.520;2023-01-05T01:33:53;8.00;1.00
20400;DHT22;10359;53.596;22.520;2023-01-05T01:36:25;8.00;1.00
20400;DHT22;10359;53.596;22.520;2023-01-05T01:38:54;8.00;1.00
20400;DHT22;10359;53.596;22.520;2023-01-05T01:41:24;8.00;1.00
20400;DHT22;10359;53.596;22.520;2023-01-05T01:43:55;8.00;1.00
20400;DHT22;10359;53.596;22.520;2023-01-05T01:46:25;8.00;1.00
20400;DHT22;10359;53.596;22.520;2023-01-05T01:48:57;8.10;1.00
20400;DHT22;10359;53.596;22.520;2023-01-05T01:51:37;8.10;1.00
20400;DHT22;10359;53.596;22.520;2023-01-05T01:54:09;8.10;1.00
20400;DHT22;10359;53.596;22.520;2023-01-05T01:56:41;8.20;1.00
20400;DHT22;10359;53.596;22.520;2023-01-05T01:59:12;8.30;1.00
20400;DHT22;10359;53.596;22.520;2023-01-05T02:01:42;8.30;1.00
20400;DHT22;10359;53.596;22.520;2023-01-05T02:04:12;8.30;1.00
20400;DHT22;10359;53.596;22.520;2023-01-05T02:06:44;8.30;1.00
20400;DHT22;10359;53.596;22.520;2023-01-05T02:09:14;8.30;1.00
20400;DHT22;10359;53.596;22.520;2023-01-05T02:25:46;8.40;1.00
20400;DHT22;10359;53.596;22.520;2023-01-05T02:39:17;8.50;1.00
20400;DHT22;10359;53.596;22.520;2023-01-05T02:41:52;8.50;1.00
20400;DHT22;10359;53.596;22.520;2023-01-05T02:59:10;8.50;1.00
20400;DHT22;10359;53.596;22.520;2023-01-05T03:06:02;8.40;1.00
20400;DHT22;10359;53.596;22.520;2023-01-05T03:09:01;8.50;1.00
20400;DHT22;10359;53.596;22.520;2023-01-05T03:12:02;8.50;1.00
20400;DHT22;10359;53.596;22.520;2023-01-05T15:48:26;6.90;1.00
20400;DHT22;10359;53.596;22.520;2023-01-05T15:50:57;7.00;1.00
20400;DHT22;10359;53.596;22.520;2023-01-05T15:57:19;7.00;1.00
20400;DHT22;10359;53.596;22.520;2023-01-05T16:00:17;7.10;1.00
20400;DHT22;10359;53.596;22.520;2023-01-05T16:03:26;7.10;1.00
20400;DHT22;10359;53.596;22.520;2023-01-05T16:06:25;7.10;1.00
20400;DHT22;10359;53.596;22.520;2023-01-05T16:13:15;7.00;1.00
20400;DHT22;10359;53.596;22.520;2023-01-05T16:16:17;6.90;1.00
20400;DHT22;10359;53.596;22.520;2023-01-05T16:19:23;6.80;1.00
20400;DHT22;10359;53.596;22.520;2023-01-05T16:22:24;6.80;1.00
20400;DHT22;10359;53.596;22.520;2023-01-05T16:29:32;6.80;1.00
20400;DHT22;10359;53.596;22.520;2023-01-05T16:32:32;6.80;1.00
20400;DHT22;10359;53.596;22.520;2023-01-05T16:35:37;6.80;1.00
20400;DHT22;10359;53.596;22.520;2023-01-05T16:42:25;6.70;1.00
20400;DHT22;10359;53.596;22.520;2023-01-05T16:45:33;6.70;1.00
20400;DHT22;10359;53.596;22.520;2023-01-05T18:04:58;3.60;1.00
20400;DHT22;10359;53.596;22.520;2023-01-05T18:07:28;3.60;1.00
20400;DHT22;10359;53.596;22.520;2023-01-05T18:09:58;3.60;1.00
20400;DHT22;10359;53.596;22.520;2023-01-05T18:12:27;3.50;1.00
20400;DHT22;10359;53.596;22.520;2023-01-05T18:14:57;3.50;1.00
20400;DHT22;10359;53.596;22.520;2023-01-05T18:17:26;3.40;1.00
20400;DHT22;10359;53.596;22.520;2023-01-05T18:19:56;3.20;1.00
20400;DHT22;10359;53.596;22.520;2023-01-05T18:22:26;3.20;1.00
20400;DHT22;10359;53.596;22.520;2023-01-05T18:24:56;3.20;1.00
20400;DHT22;10359;53.596;22.520;2023-01-05T18:27:25;3.10;1.00
20400;DHT22;10359;53.596;22.520;2023-01-05T18:29:55;3.00;1.00
20400;DHT22;10359;53.596;22.520;2023-01-05T18:32:26;2.90;1.00
20400;DHT22;10359;53.596;22.520;2023-01-05T18:35:03;3.00;1.00
20400;DHT22;10359;53.596;22.520;2023-01-05T18:37:37;3.00;1.00
20400;DHT22;10359;53.596;22.520;2023-01-05T18:40:08;3.00;1.00
20400;DHT22;10359;53.596;22.520;2023-01-05T18:42:38;2.90;1.00
20400;DHT22;10359;53.596;22.520;2023-01-05T18:45:08;2.90;1.00
20400;DHT22;10359;53.596;22.520;2023-01-05T18:47:55;2.90;1.00
20400;DHT22;10359;53.596;22.520;2023-01-05T18:50:26;2.90;1.00
20400;DHT22;10359;53.596;22.520;2023-01-05T18:52:57;2.90;1.00
20400;DHT22;10359;53.596;22.520;2023-01-05T18:55:30;2.80;1.00
20400;DHT22;10359;53.596;22.520;2023-01-05T18:58:00;2.80;1.00
20400;DHT22;10359;53.596;22.520;2023-01-05T19:00:29;2.80;1.00
20400;DHT22;10359;53.596;22.520;2023-01-05T19:03:00;2.80;1.00
20400;DHT22;10359;53.596;22.520;2023-01-05T19:05:31;2.60;1.00
20400;DHT22;10359;53.596;22.520;2023-01-05T19:08:01;2.60;1.00
20400;DHT22;10359;53.596;22.520;2023-01-05T19:10:30;2.50;1.00
20400;DHT22;10359;53.596;22.520;2023-01-05T19:12:59;2.60;1.00
20400;DHT22;10359;53.596;22.520;2023-01-05T19:15:30;2.60;1.00
20400;DHT22;10359;53.596;22.520;2023-01-05T19:18:00;2.40;1.00
20400;DHT22;10359;53.596;22.520;2023-01-05T19:20:32;2.40;1.00
20400;DHT22;10359;53.596;22.520;2023-01-05T19:23:01;2.30;1.00
20400;DHT22;10359;53.596;22.520;2023-01-05T19:25:31;2.30;1.00
20400;DHT22;10359;53.596;22.520;2023-01-05T19:28:01;2.30;1.00
20400;DHT22;10359;53.596;22.520;2023-01-05T19:30:31;2.40;1.00
20400;DHT22;10359;53.596;22.520;2023-01-05T19:33:00;2.20;1.00
20400;DHT22;10359;53.596;22.520;2023-01-05T19:35:31;2.30;1.00
20400;DHT22;10359;53.596;22.520;2023-01-05T19:38:00;2.20;1.00
20400;DHT22;10359;53.596;22.520;2023-01-05T19:40:29;2.20;1.00
20400;DHT22;10359;53.596;22.520;2023-01-05T19:43:00;2.10;1.00
20400;DHT22;10359;53.596;22.520;2023-01-05T19:45:29;2.10;1.00
20400;DHT22;10359;53.596;22.520;2023-01-05T19:47:58;2.10;1.00
20400;DHT22;10359;53.596;22.520;2023-01-05T19:50:28;2.10;1.00
20400;DHT22;10359;53.596;22.520;2023-01-05T19:52:59;2.10;1.00
20400;DHT22;10359;53.596;22.520;2023-01-05T19:55:29;2.10;1.00
20400;DHT22;10359;53.596;22.520;2023-01-05T19:57:58;2.10;1.00
20400;DHT22;10359;53.596;22.520;2023-01-05T20:00:27;2.00;1.00
20400;DHT22;10359;53.596;22.520;2023-01-05T20:02:57;2.00;1.00
20400;DHT22;10359;53.596;22.520;2023-01-05T20:05:27;2.00;1.00
20400;DHT22;10359;53.596;22.520;2023-01-05T20:07:56;2.00;1.00
20400;DHT22;10359;53.596;22.520;2023-01-05T20:10:31;2.00;1.00
20400;DHT22;10359;53.596;22.520;2023-01-05T20:13:00;2.00;1.00
20400;DHT22;10359;53.596;22.520;2023-01-05T20:15:29;1.90;1.00
20400;DHT22;10359;53.596;22.520;2023-01-05T20:17:59;1.90;1.00
20400;DHT22;10359;53.596;22.520;2023-01-05T20:20:28;1.80;1.00
20400;DHT22;10359;53.596;22.520;2023-01-05T20:22:58;1.80;1.00
20400;DHT22;10359;53.596;22.520;2023-01-05T20:25:29;1.80;1.00
20400;DHT22;10359;53.596;22.520;2023-01-05T20:27:59;1.80;1.00
20400;DHT22;10359;53.596;22.520;2023-01-05T20:30:28;1.80;1.00
20400;DHT22;10359;53.596;22.520;2023-01-05T20:33:01;1.70;1.00
20400;DHT22;10359;53.596;22.520;2023-01-05T20:35:32;1.80;1.00
20400;DHT22;10359;53.596;22.520;2023-01-05T20:38:02;1.70;1.00
20400;DHT22;10359;53.596;22.520;2023-01-05T20:40:33;1.80;1.00
20400;DHT22;10359;53.596;22.520;2023-01-05T20:43:02;1.70;1.00
20400;DHT22;10359;53.596;22.520;2023-01-05T20:45:31;1.70;1.00
20400;DHT22;10359;53.596;22.520;2023-01-05T20:48:01;1.70;1.00
20400;DHT22;10359;53.596;22.520;2023-01-05T20:50:30;1.70;1.00
20400;DHT22;10359;53.596;22.520;2023-01-05T20:52:59;1.70;1.00
20400;DHT22;10359;53.596;22.520;2023-01-05T20:55:29;1.80;1.00
20400;DHT22;10359;53.596;22.520;2023-01-05T20:58:02;1.80;1.00
20400;DHT22;10359;53.596;22.520;2023-01-05T21:00:31;1.80;1.00
20400;DHT22;10359;53.596;22.520;2023-01-05T21:03:21;1.60;1.00
20400;DHT22;10359;53.596;22.520;2023-01-05T21:05:50;1.60;1.00
20400;DHT22;10359;53.596;22.520;2023-01-05T21:08:20;1.30;1.00
20400;DHT22;10359;53.596;22.520;2023-01-05T21:10:52;1.20;1.00
20400;DHT22;10359;53.596;22.520;2023-01-05T21:13:23;1.30;1.00
20400;DHT22;10359;53.596;22.520;2023-01-05T21:16:01;1.40;1.00
20400;DHT22;10359;53.596;22.520;2023-01-05T21:18:31;1.40;1.00
20400;DHT22;10359;53.596;22.520;2023-01-05T21:21:03;1.20;1.00
20400;DHT22;10359;53.596;22.520;2023-01-05T21:23:33;1.00;1.00
20400;DHT22;10359;53.596;22.520;2023-01-05T21:26:05;1.00;1.00
20400;DHT22;10359;53.596;22.520;2023-01-05T21:28:42;0.90;1.00
20400;DHT22;10359;53.596;22.520;2023-01-05T21:31:13;1.00;1.00
20400;DHT22;10359;53.596;22.520;2023-01-05T21:33:44;0.80;1.00
20400;DHT22;10359;53.596;22.520;2023-01-05T21:36:17;0.80;1.00
20400;DHT22;10359;53.596;22.520;2023-01-05T21:38:49;0.90;1.00
20400;DHT22;10359;53.596;22.520;2023-01-05T21:41:30;0.90;1.00
20400;DHT22;10359;53.596;22.520;2023-01-05T21:44:18;1.00;1.00
20400;DHT22;10359;53.596;22.520;2023-01-05T21:46:48;1.00;1.00
20400;DHT22;10359;53.596;22.520;2023-01-05T21:49:19;0.90;1.00
20400;DHT22;10359;53.596;22.520;2023-01-05T21:51:48;0.90;1.00
20400;DHT22;10359;53.596;22.520;2023-01-05T21:54:34;0.90;1.00
20400;DHT22;10359;53.596;22.520;2023-01-05T21:57:21;0.90;1.00
20400;DHT22;10359;53.596;22.520;2023-01-05T21:59:51;0.90;1.00
20400;DHT22;10359;53.596;22.520;2023-01-05T22:02:20;0.90;1.00
20400;DHT22;10359;53.596;22.520;2023-01-05T22:04:52;0.90;1.00
20400;DHT22;10359;53.596;22.520;2023-01-05T22:07:25;0.90;1.00
20400;DHT22;10359;53.596;22.520;2023-01-05T22:09:54;0.80;1.00
20400;DHT22;10359;53.596;22.520;2023-01-05T22:12:23;0.90;1.00
20400;DHT22;10359;53.596;22.520;2023-01-05T22:14:54;0.70;1.00
20400;DHT22;10359;53.596;22.520;2023-01-05T22:17:23;0.60;1.00
20400;DHT22;10359;53.596;22.520;2023-01-05T22:19:52;0.50;1.00
20400;DHT22;10359;53.596;22.520;2023-01-05T22:22:22;0.30;1.00
20400;DHT22;10359;53.596;22.520;2023-01-05T22:24:51;0.20;1.00
20400;DHT22;10359;53.596;22.520;2023-01-05T22:27:20;0.10;1.00
20400;DHT22;10359;53.596;22.520;2023-01-05T22:29:49;0.00;1.00
20400;DHT22;10359;53.596;22.520;2023-01-05T22:32:19;-0.10;1.00
20400;DHT22;10359;53.596;22.520;2023-01-05T22:34:49;-0.10;1.00
20400;DHT22;10359;53.596;22.520;2023-01-05T22:37:18;0.00;1.00
20400;DHT22;10359;53.596;22.520;2023-01-05T22:39:47;0.10;1.00
20400;DHT22;10359;53.596;22.520;2023-01-05T22:42:17;0.00;1.00
20400;DHT22;10359;53.596;22.520;2023-01-05T22:44:46;0.00;1.00
20400;DHT22;10359;53.596;22.520;2023-01-05T22:47:15;0.00;1.00
20400;DHT22;10359;53.596;22.520;2023-01-05T22:49:45;-0.10;1.00
20400;DHT22;10359;53.596;22.520;2023-01-05T22:52:14;-0.10;1.00
20400;DHT22;10359;53.596;22.520;2023-01-05T22:54:46;-0.10;1.00
20400;DHT22;10359;53.596;22.520;2023-01-05T22:57:15;-0.10;1.00
20400;DHT22;10359;53.596;22.520;2023-01-05T22:59:44;-0.20;1.00
20400;DHT22;10359;53.596;22.520;2023-01-05T23:02:13;-0.20;1.00
20400;DHT22;10359;53.596;22.520;2023-01-05T23:04:42;-0.20;1.00
20400;DHT22;10359;53.596;22.520;2023-01-05T23:07:15;-0.30;1.00
20400;DHT22;10359;53.596;22.520;2023-01-05T23:09:47;-0.40;1.00
20400;DHT22;10359;53.596;22.520;2023-01-05T23:12:16;-0.60;1.00
20400;DHT22;10359;53.596;22.520;2023-01-05T23:14:45;-0.70;1.00
20400;DHT22;10359;53.596;22.520;2023-01-05T23:17:14;-0.80;1.00
20400;DHT22;10359;53.596;22.520;2023-01-05T23:19:44;-0.80;1.00
20400;DHT22;10359;53.596;22.520;2023-01-05T23:22:15;-0.80;1.00
20400;DHT22;10359;53.596;22.520;2023-01-05T23:24:44;-0.60;1.00
20400;DHT22;10359;53.596;22.520;2023-01-05T23:27:13;-0.50;1.00
20400;DHT22;10359;53.596;22.520;2023-01-05T23:29:42;-0.40;1.00
20400;DHT22;10359;53.596;22.520;2023-01-05T23:32:12;-0.40;1.00
20400;DHT22;10359;53.596;22.520;2023-01-05T23:34:41;-0.50;1.00
20400;DHT22;10359;53.596;22.520;2023-01-05T23:37:10;-0.50;1.00
20400;DHT22;10359;53.596;22.520;2023-01-05T23:39:41;-0.60;1.00
20400;DHT22;10359;53.596;22.520;2023-01-05T23:42:10;-0.70;1.00
20400;DHT22;10359;53.596;22.520;2023-01-05T23:44:59;-0.60;1.00
20400;DHT22;10359;53.596;22.520;2023-01-05T23:47:28;-0.60;1.00
20400;DHT22;10359;53.596;22.520;2023-01-05T23:49:57;-0.60;1.00
20400;DHT22;10359;53.596;22.520;2023-01-05T23:52:26;-0.70;1.00
20400;DHT22;10359;53.596;22.520;2023-01-05T23:54:57;-0.80;1.00
20400;DHT22;10359;53.596;22.520;2023-01-05T23:57:28;-0.80;1.00
20400;DHT22;10359;53.596;22.520;2023-01-05T23:59:57;-0.80;1.00
